Terminal Aerodrome Forecast
Issued by NWS Pittsburgh, PA

Current Version | Previous Version | Graphics & Text | Print | Product List | Glossary On
Versions: 1 2 3 4 5 6 7 8 9 10 11 12 13 14 15 16 17 18 19 20 21 22 23 24 25 26 27 28 29 30
000
FTUS41 KPBZ 301440 AAA
TAFPIT
TAF AMD
KPIT 301440Z 3015/0118 12008KT P6SM -SHRA BKN005 OVC025
     FM301700 18005KT P6SM -SHRA OVC015
     FM302100 22008KT P6SM -SHRA OVC025
     FM010300 26010KT P6SM VCSH BKN035
     FM011000 25010G20KT P6SM BKN025=

USA.gov is the U.S. government's official web portal to all federal, state and local government web resources and services.